3MI4 weather

Memorial Medical Center Heliport
Ludington, Michigan, United States

Public forecast

Using degrees Fahrenheit for public forecast. Weather courtesy of forecast.io.

METAR (pilot weather report)

Closest report is Mason County Airport, 0.9 nm (1.7 km) ENE. Retrieved 2019/09/16 03:38 UTC (0 seconds ago):

KLDM 160338Z AUTO 00000KT 10SM BKN049 19/18 A3004 RMK AO2 T01900180

TAF (pilot weather forecast)

Forecast is more than 12 hours old.

Closest forecast is Manistee Co Blacker Airport, 20.4 nm (37.8 km) NNE. Retrieved 2019/09/15 00:39 UTC (1 day ago):

TAF KMBL 152336Z 1600/1624 00000KT P6SM OVC018 FM160300 00000KT 4SM BR OVC006 FM160600 00000KT 1SM BR OVC004 FM161500 VRB04KT P6SM BKN012 FM161700 VRB04KT P6SM SCT017